createdAt,value
2023-02-06T00:01:27.392Z,3.00
2023-02-06T00:03:55.352Z,3.20
2023-02-06T00:06:30.569Z,3.20
2023-02-06T00:08:58.756Z,3.10
2023-02-06T00:11:27.310Z,3.30
2023-02-06T00:13:55.178Z,3.30
2023-02-06T00:16:42.955Z,3.20
2023-02-06T00:19:12.083Z,2.60
2023-02-06T00:21:40.990Z,3.00
2023-02-06T00:24:09.308Z,3.00
2023-02-06T00:26:37.741Z,3.20
2023-02-06T00:29:06.072Z,2.90
2023-02-06T00:31:34.886Z,3.10
2023-02-06T00:34:03.957Z,3.40
2023-02-06T00:36:33.772Z,2.90
2023-02-06T00:39:02.050Z,2.70
2023-02-06T00:41:30.100Z,2.70
2023-02-06T00:43:59.009Z,3.10
2023-02-06T00:46:27.028Z,3.00
2023-02-06T00:48:54.944Z,3.20
2023-02-06T00:51:24.011Z,2.90
2023-02-06T00:53:51.889Z,3.00
2023-02-06T00:56:20.703Z,3.10
2023-02-06T00:58:48.836Z,3.80
2023-02-06T01:01:17.802Z,2.70
2023-02-06T01:03:45.857Z,2.90
2023-02-06T01:06:13.970Z,2.90
2023-02-06T01:08:42.002Z,3.00
2023-02-06T01:11:15.749Z,2.70
2023-02-06T01:13:43.676Z,3.00
2023-02-06T01:16:14.441Z,2.80
2023-02-06T01:18:42.413Z,3.30
2023-02-06T01:21:11.376Z,2.60
2023-02-06T01:23:39.570Z,2.80
2023-02-06T01:26:12.535Z,3.70
2023-02-06T01:28:41.682Z,2.90
2023-02-06T01:31:23.108Z,2.90
2023-02-06T01:33:51.340Z,3.20
2023-02-06T01:36:20.411Z,3.00
2023-02-06T01:38:48.492Z,2.90
2023-02-06T01:41:17.147Z,2.90
2023-02-06T01:43:46.984Z,3.10
2023-02-06T01:46:14.801Z,2.70
2023-02-06T01:48:51.709Z,2.80
2023-02-06T01:51:21.761Z,2.70
2023-02-06T01:53:51.738Z,2.80
2023-02-06T01:56:19.823Z,2.70
2023-02-06T01:58:50.594Z,2.80
2023-02-06T02:01:19.715Z,2.90
2023-02-06T02:03:49.614Z,2.80
2023-02-06T02:06:19.330Z,2.70
2023-02-06T02:08:48.302Z,2.90
2023-02-06T02:11:29.340Z,2.70
2023-02-06T02:13:57.801Z,2.30
2023-02-06T02:16:51.052Z,2.70
2023-02-06T02:20:01.019Z,2.70
2023-02-06T02:22:37.624Z,2.90
2023-02-06T02:25:05.839Z,2.60
2023-02-06T02:27:56.402Z,3.20
2023-02-06T02:30:32.755Z,3.10
2023-02-06T02:33:34.897Z,2.70
2023-02-06T02:36:08.372Z,2.70
2023-02-06T02:38:39.694Z,2.90
2023-02-06T02:41:29.458Z,2.70
2023-02-06T02:44:12.298Z,2.70
2023-02-06T02:46:43.033Z,2.60
2023-02-06T02:49:22.122Z,3.10
2023-02-06T02:51:50.495Z,2.60
2023-02-06T02:54:18.918Z,2.80
2023-02-06T02:56:48.042Z,2.80
2023-02-06T02:59:27.911Z,2.70
2023-02-06T03:01:58.402Z,2.60
2023-02-06T03:04:30.190Z,2.40
2023-02-06T03:07:23.347Z,2.60
2023-02-06T03:10:06.590Z,2.80
2023-02-06T03:12:45.780Z,2.80
2023-02-06T03:15:23.730Z,2.70
2023-02-06T03:18:01.346Z,2.70
2023-02-06T03:20:30.447Z,3.00
2023-02-06T03:22:59.098Z,2.80
2023-02-06T03:25:36.308Z,2.70
2023-02-06T03:28:05.488Z,2.90
2023-02-06T03:30:33.705Z,2.80
2023-02-06T03:33:04.420Z,2.50
2023-02-06T03:35:35.200Z,2.60
2023-02-06T03:38:04.864Z,2.80
2023-02-06T03:40:34.343Z,2.50
2023-02-06T03:43:03.533Z,2.50
2023-02-06T03:45:38.596Z,2.40
2023-02-06T03:48:11.191Z,2.60
2023-02-06T03:50:40.920Z,2.60
2023-02-06T03:53:08.992Z,2.50
2023-02-06T03:55:37.314Z,2.90
2023-02-06T03:58:08.156Z,2.50
2023-02-06T04:00:36.458Z,3.20
2023-02-06T04:03:04.459Z,2.80
2023-02-06T04:05:33.133Z,2.50
2023-02-06T04:08:01.494Z,2.70
2023-02-06T04:10:29.751Z,2.80
2023-02-06T04:12:58.242Z,2.80
2023-02-06T04:15:26.109Z,2.30
2023-02-06T04:18:00.319Z,2.70
2023-02-06T04:20:29.729Z,2.80
2023-02-06T04:22:58.393Z,2.60
2023-02-06T04:25:26.452Z,2.60
2023-02-06T04:27:54.521Z,2.50
2023-02-06T04:30:23.211Z,2.50
2023-02-06T04:32:51.289Z,2.60
2023-02-06T04:35:19.417Z,3.10
2023-02-06T04:37:47.391Z,2.80
2023-02-06T04:40:15.359Z,2.80
2023-02-06T04:42:43.933Z,2.90
2023-02-06T04:45:11.801Z,2.60
2023-02-06T04:47:39.892Z,2.70
2023-02-06T04:50:08.167Z,2.90
2023-02-06T04:52:36.719Z,2.70
2023-02-06T04:55:05.006Z,2.70
2023-02-06T04:57:33.908Z,2.80
2023-02-06T05:00:01.774Z,3.00
2023-02-06T05:02:30.060Z,2.60
2023-02-06T05:04:57.962Z,3.00
2023-02-06T05:07:26.101Z,2.70
2023-02-06T05:09:53.900Z,2.80
2023-02-06T05:12:21.801Z,3.40
2023-02-06T05:14:49.948Z,2.40
2023-02-06T05:17:19.856Z,2.90
2023-02-06T05:19:47.781Z,3.20
2023-02-06T05:22:15.939Z,2.70
2023-02-06T05:24:43.912Z,3.10
2023-02-06T05:27:12.039Z,2.70
2023-02-06T05:29:40.115Z,2.90
2023-02-06T05:33:10.004Z,3.00
2023-02-06T05:35:38.809Z,2.90
2023-02-06T05:38:07.028Z,2.90
2023-02-06T05:40:35.196Z,3.40
2023-02-06T05:43:03.385Z,4.30
2023-02-06T05:45:31.314Z,3.40
2023-02-06T05:47:59.426Z,3.70
2023-02-06T05:50:27.357Z,3.50
2023-02-06T05:52:55.549Z,3.30
2023-02-06T05:55:23.533Z,3.80
2023-02-06T05:57:51.376Z,3.10
2023-02-06T06:00:20.094Z,3.40
2023-02-06T06:02:47.906Z,3.70
2023-02-06T06:05:15.891Z,3.30
2023-02-06T06:07:43.878Z,2.90
2023-02-06T06:10:11.752Z,3.30
2023-02-06T06:12:40.655Z,3.20
2023-02-06T06:15:09.344Z,3.50
2023-02-06T06:17:38.808Z,3.30
2023-02-06T06:20:06.888Z,3.20
2023-02-06T06:22:35.050Z,3.80
2023-02-06T06:25:05.074Z,3.30
2023-02-06T06:27:33.789Z,2.70
2023-02-06T06:30:01.754Z,3.20
2023-02-06T06:32:30.019Z,3.40
2023-02-06T06:34:58.003Z,3.40
2023-02-06T06:37:26.044Z,2.80
2023-02-06T06:39:53.939Z,3.10
2023-02-06T06:42:21.847Z,3.10
2023-02-06T06:44:49.754Z,3.00
2023-02-06T06:47:17.743Z,3.00
2023-02-06T06:49:45.585Z,2.80
2023-02-06T06:52:24.548Z,3.40
2023-02-06T06:54:53.599Z,3.60
2023-02-06T06:57:22.017Z,3.20
2023-02-06T06:59:49.986Z,3.30
2023-02-06T07:02:18.104Z,3.50
2023-02-06T07:04:46.087Z,4.50
2023-02-06T07:07:14.159Z,5.00
2023-02-06T07:09:42.179Z,3.30
2023-02-06T07:12:13.402Z,3.90
2023-02-06T07:14:41.887Z,4.20
2023-02-06T07:17:09.929Z,3.30
2023-02-06T07:19:37.936Z,4.10
2023-02-06T07:22:06.325Z,4.50
2023-02-06T07:24:35.720Z,5.60
2023-02-06T07:27:04.185Z,3.00
2023-02-06T07:29:32.628Z,2.90
2023-02-06T07:32:00.586Z,3.60
2023-02-06T07:34:29.120Z,4.30
2023-02-06T07:36:57.279Z,3.10
2023-02-06T07:39:25.836Z,4.30
2023-02-06T07:41:53.657Z,3.30
2023-02-06T07:44:21.776Z,3.10
2023-02-06T07:46:49.664Z,3.30
2023-02-06T07:49:17.852Z,2.90
2023-02-06T07:51:46.228Z,3.80
2023-02-06T07:54:14.259Z,4.00
2023-02-06T07:56:42.757Z,4.70
2023-02-06T07:59:10.661Z,4.70
2023-02-06T08:01:38.697Z,4.10
2023-02-06T08:04:06.745Z,3.20
2023-02-06T08:06:36.020Z,3.70
2023-02-06T08:09:05.835Z,4.50
2023-02-06T08:11:36.032Z,3.60
2023-02-06T08:14:04.608Z,3.90
2023-02-06T08:16:32.825Z,4.90
2023-02-06T08:19:00.732Z,3.20
2023-02-06T08:21:28.740Z,4.70
2023-02-06T08:23:57.735Z,3.90
2023-02-06T08:26:27.123Z,3.80
2023-02-06T08:28:55.452Z,4.10
2023-02-06T08:31:28.603Z,4.50
2023-02-06T08:33:57.151Z,4.60
2023-02-06T08:36:25.405Z,5.60
2023-02-06T08:38:53.603Z,4.00
2023-02-06T08:41:27.539Z,5.10
2023-02-06T08:43:57.243Z,4.50
2023-02-06T08:46:27.027Z,4.20
2023-02-06T08:49:10.876Z,5.30
2023-02-06T08:51:39.165Z,5.40
2023-02-06T08:54:08.985Z,4.20
2023-02-06T08:56:37.776Z,5.10
2023-02-06T08:59:06.474Z,3.50
2023-02-06T09:01:37.034Z,5.40
2023-02-06T09:04:09.549Z,4.90
2023-02-06T09:06:40.954Z,4.00
2023-02-06T09:09:09.233Z,5.40
2023-02-06T09:11:37.372Z,5.10
2023-02-06T09:14:06.084Z,4.90
2023-02-06T09:16:34.389Z,3.50
2023-02-06T09:19:03.535Z,4.70
2023-02-06T09:21:33.120Z,4.50
2023-02-06T09:24:02.734Z,4.40
2023-02-06T09:26:44.838Z,6.10
2023-02-06T09:29:18.565Z,3.70
2023-02-06T09:31:47.866Z,5.80
2023-02-06T09:34:15.990Z,4.70
2023-02-06T09:36:44.246Z,4.20
2023-02-06T09:39:12.278Z,5.40
2023-02-06T09:41:43.298Z,4.90
2023-02-06T09:44:27.230Z,5.80
2023-02-06T09:47:13.108Z,4.90
2023-02-06T09:49:48.202Z,5.20
2023-02-06T09:52:34.984Z,4.70
2023-02-06T09:57:43.686Z,5.50
2023-02-06T10:00:32.804Z,4.10
2023-02-06T10:03:17.905Z,4.40
2023-02-06T10:06:01.396Z,6.20
2023-02-06T10:09:04.877Z,6.30
2023-02-06T10:11:57.701Z,6.80
2023-02-06T10:14:32.666Z,3.90
2023-02-06T10:17:06.526Z,7.00
2023-02-06T10:19:34.706Z,4.40
2023-02-06T10:22:12.818Z,8.70
2023-02-06T10:24:50.530Z,6.20
2023-02-06T10:27:18.514Z,6.20
2023-02-06T10:29:47.673Z,9.90
2023-02-06T10:32:22.733Z,9.00
2023-02-06T10:35:33.467Z,11.00
2023-02-06T10:38:44.865Z,11.20
2023-02-06T10:41:37.996Z,8.40
2023-02-06T10:44:17.463Z,10.20
2023-02-06T10:46:48.420Z,10.30
2023-02-06T10:49:34.283Z,10.00
2023-02-06T10:52:09.462Z,5.60
2023-02-06T10:54:43.361Z,9.10
2023-02-06T10:57:14.616Z,10.00
2023-02-06T10:59:54.055Z,11.70
2023-02-06T11:02:48.902Z,9.90
2023-02-06T11:05:21.621Z,19.10
2023-02-06T11:07:52.390Z,13.90
2023-02-06T11:10:22.052Z,9.20
2023-02-06T11:12:52.069Z,9.40
2023-02-06T11:15:58.668Z,15.30
2023-02-06T11:18:39.268Z,10.40
2023-02-06T11:21:09.078Z,10.60
2023-02-06T11:23:37.034Z,14.30
2023-02-06T11:26:10.590Z,7.90
2023-02-06T11:28:49.346Z,12.80
2023-02-06T11:31:18.852Z,8.10
2023-02-06T11:33:54.403Z,11.20
2023-02-06T11:36:36.484Z,11.80
2023-02-06T11:39:22.324Z,10.70
2023-02-06T11:42:18.530Z,9.80
2023-02-06T11:44:50.694Z,9.60
2023-02-06T11:47:31.210Z,8.50
2023-02-06T11:50:36.729Z,8.90
2023-02-06T11:53:14.996Z,10.60
2023-02-06T11:55:43.159Z,12.00
2023-02-06T11:58:14.220Z,10.20
2023-02-06T12:01:06.515Z,9.70
2023-02-06T12:03:40.242Z,12.20
2023-02-06T12:06:13.664Z,12.80
2023-02-06T12:08:52.660Z,14.30
2023-02-06T12:11:26.460Z,11.60
2023-02-06T12:14:01.414Z,15.80
2023-02-06T12:16:29.512Z,9.50
2023-02-06T12:18:57.778Z,16.10
2023-02-06T12:21:28.400Z,11.70
2023-02-06T12:23:58.528Z,12.00
2023-02-06T12:26:29.270Z,20.00
2023-02-06T12:29:09.754Z,8.90
2023-02-06T12:31:38.935Z,11.10
2023-02-06T12:34:19.752Z,13.30
2023-02-06T12:37:10.789Z,14.70
2023-02-06T12:39:38.697Z,8.40
2023-02-06T12:42:12.224Z,12.70
2023-02-06T12:44:43.262Z,13.40
2023-02-06T12:47:23.770Z,9.80
2023-02-06T12:50:22.700Z,7.90
2023-02-06T12:53:03.327Z,8.60
2023-02-06T12:55:34.516Z,10.70
2023-02-06T12:58:02.926Z,13.00
2023-02-06T13:00:37.954Z,12.00
2023-02-06T16:52:05.488Z,5.00
2023-02-06T16:54:34.027Z,5.00
2023-02-06T16:57:11.514Z,5.90
2023-02-06T16:59:38.393Z,4.90
2023-02-06T17:02:13.286Z,3.40
2023-02-06T17:04:40.878Z,9.60
2023-02-06T17:07:12.691Z,8.00
2023-02-06T17:09:39.742Z,3.60
2023-02-06T17:12:10.352Z,5.00
2023-02-06T17:14:37.025Z,4.90
2023-02-06T17:17:03.688Z,3.70
2023-02-06T17:19:30.401Z,5.60
2023-02-06T17:21:57.255Z,4.90
2023-02-06T17:24:24.212Z,4.90
2023-02-06T17:26:50.935Z,5.00
2023-02-06T17:29:17.590Z,4.70
2023-02-06T17:31:44.432Z,4.50
2023-02-06T17:34:11.667Z,4.10
2023-02-06T17:36:39.016Z,3.80
2023-02-06T17:39:06.783Z,4.90
2023-02-06T17:41:35.163Z,4.60
2023-02-06T17:44:03.547Z,7.60
2023-02-06T17:46:30.722Z,4.10
2023-02-06T17:48:57.338Z,5.70
2023-02-06T17:51:24.484Z,7.70
2023-02-06T17:53:51.529Z,5.00
2023-02-06T17:56:18.664Z,4.20
2023-02-06T17:58:45.239Z,4.10
2023-02-06T18:01:13.026Z,4.50
2023-02-06T18:03:40.595Z,3.20
2023-02-06T18:06:07.658Z,4.60
2023-02-06T18:08:34.330Z,4.30
2023-02-06T18:11:09.022Z,4.70
2023-02-06T18:13:35.894Z,5.40
2023-02-06T18:16:06.654Z,3.80
2023-02-06T18:18:34.070Z,4.20
2023-02-06T18:21:00.934Z,4.10
2023-02-06T18:23:29.002Z,3.50
2023-02-06T18:26:02.530Z,3.70
2023-02-06T18:28:30.738Z,4.20
2023-02-06T18:30:57.683Z,6.00
2023-02-06T18:33:24.698Z,6.20
2023-02-06T18:35:51.276Z,4.70
2023-02-06T18:38:18.274Z,3.90
2023-02-06T18:40:47.239Z,4.90
2023-02-06T18:43:14.284Z,4.20
2023-02-06T18:45:41.432Z,6.00
2023-02-06T18:48:10.269Z,6.50
2023-02-06T18:50:40.718Z,4.00
2023-02-06T18:53:07.909Z,4.10
2023-02-06T18:55:34.937Z,5.40
2023-02-06T18:58:02.092Z,5.80
2023-02-06T19:00:29.986Z,5.10
2023-02-06T19:02:57.884Z,4.10
2023-02-06T19:05:24.669Z,4.70
2023-02-06T19:07:53.082Z,5.80
2023-02-06T19:10:20.592Z,5.40
2023-02-06T19:12:48.410Z,7.40
2023-02-06T19:15:15.634Z,6.10
2023-02-06T19:17:42.573Z,5.60
2023-02-06T19:20:12.873Z,4.30
2023-02-06T19:22:40.975Z,6.30
2023-02-06T19:25:10.888Z,5.60
2023-02-06T19:27:38.645Z,5.20
2023-02-06T19:30:07.659Z,4.50
2023-02-06T19:32:34.519Z,4.50
2023-02-06T19:35:02.352Z,4.40
2023-02-06T19:37:32.060Z,3.80
2023-02-06T19:39:59.924Z,5.30
2023-02-06T19:42:26.970Z,4.70
2023-02-06T19:44:56.828Z,4.00
2023-02-06T19:47:26.212Z,5.10
2023-02-06T19:49:56.285Z,4.90
2023-02-06T19:52:22.891Z,4.10
2023-02-06T19:54:49.783Z,4.60
2023-02-06T19:57:18.978Z,4.10
2023-02-06T19:59:45.820Z,4.40
2023-02-06T20:02:16.459Z,4.20
2023-02-06T20:04:45.752Z,6.00
2023-02-06T20:07:12.598Z,4.60
2023-02-06T20:09:41.592Z,4.40
2023-02-06T20:12:13.227Z,4.50
2023-02-06T20:14:41.829Z,4.10
2023-02-06T20:17:09.804Z,4.20
2023-02-06T20:19:36.761Z,4.40
2023-02-06T20:22:04.203Z,4.10
2023-02-06T20:24:31.429Z,4.50
2023-02-06T20:27:00.033Z,4.60
2023-02-06T20:29:32.124Z,4.20
2023-02-06T20:31:59.054Z,5.50
2023-02-06T20:34:26.572Z,6.40
2023-02-06T20:36:53.863Z,4.20
2023-02-06T20:39:22.699Z,6.20
2023-02-06T20:41:50.312Z,5.90
2023-02-06T20:44:17.565Z,4.10
2023-02-06T20:46:44.409Z,4.30
2023-02-06T20:49:14.566Z,4.40
2023-02-06T20:51:41.165Z,4.10
2023-02-06T20:54:08.210Z,6.20
2023-02-06T20:56:35.251Z,4.70
2023-02-06T20:59:03.016Z,4.40
2023-02-06T21:01:30.679Z,5.20
2023-02-06T21:04:03.335Z,5.00
2023-02-06T21:06:30.569Z,3.90
2023-02-06T21:09:00.742Z,4.60
2023-02-06T21:11:32.354Z,4.30
2023-02-06T21:14:00.563Z,4.30
2023-02-06T21:16:27.712Z,3.90
2023-02-06T21:18:55.278Z,3.90
2023-02-06T21:21:22.825Z,4.10
2023-02-06T21:23:49.919Z,3.50
2023-02-06T21:26:17.638Z,4.70
2023-02-06T21:28:45.503Z,4.40
2023-02-06T21:31:14.781Z,4.60
2023-02-06T21:33:41.426Z,5.00
2023-02-06T21:36:08.363Z,3.80
2023-02-06T21:38:35.129Z,4.20
2023-02-06T21:41:10.135Z,4.50
2023-02-06T21:43:36.679Z,4.40
2023-02-06T21:46:03.909Z,3.60
2023-02-06T21:48:30.735Z,4.40
2023-02-06T21:50:57.420Z,4.30
2023-02-06T21:53:24.188Z,3.80
2023-02-06T21:55:50.828Z,4.00
2023-02-06T21:58:17.629Z,4.10
2023-02-06T22:00:45.826Z,4.20
2023-02-06T22:03:13.196Z,4.30
